sensor_id;sensor_type;location;lat;lon;timestamp;temperature;humidity
29501;DHT22;16450;50.288;10.966;2023-04-15T00:00:07;6.30;99.90
29501;DHT22;16450;50.288;10.966;2023-04-15T00:03:09;6.30;99.90
29501;DHT22;16450;50.288;10.966;2023-04-15T00:06:11;6.20;99.90
29501;DHT22;16450;50.288;10.966;2023-04-15T00:09:14;6.20;99.90
29501;DHT22;16450;50.288;10.966;2023-04-15T00:12:16;6.20;99.90
29501;DHT22;16450;50.288;10.966;2023-04-15T00:15:18;6.20;99.90
29501;DHT22;16450;50.288;10.966;2023-04-15T00:18:20;6.20;99.90
29501;DHT22;16450;50.288;10.966;2023-04-15T00:21:22;6.30;99.90
29501;DHT22;16450;50.288;10.966;2023-04-15T00:24:24;6.20;99.90
29501;DHT22;16450;50.288;10.966;2023-04-15T00:27:26;6.20;99.90
29501;DHT22;16450;50.288;10.966;2023-04-15T00:30:28;6.20;99.90
29501;DHT22;16450;50.288;10.966;2023-04-15T00:33:30;6.20;99.90
29501;DHT22;16450;50.288;10.966;2023-04-15T00:36:32;6.20;99.90
29501;DHT22;16450;50.288;10.966;2023-04-15T00:39:35;6.30;99.90
29501;DHT22;16450;50.288;10.966;2023-04-15T00:42:38;6.20;99.90
29501;DHT22;16450;50.288;10.966;2023-04-15T00:45:40;6.20;99.90
29501;DHT22;16450;50.288;10.966;2023-04-15T00:48:42;6.20;99.90
29501;DHT22;16450;50.288;10.966;2023-04-15T00:51:45;6.30;99.90
29501;DHT22;16450;50.288;10.966;2023-04-15T00:54:47;6.20;99.90
29501;DHT22;16450;50.288;10.966;2023-04-15T00:57:49;6.20;99.90
29501;DHT22;16450;50.288;10.966;2023-04-15T01:00:51;6.20;99.90
29501;DHT22;16450;50.288;10.966;2023-04-15T01:03:56;6.30;99.90
29501;DHT22;16450;50.288;10.966;2023-04-15T01:07:00;6.20;99.90
29501;DHT22;16450;50.288;10.966;2023-04-15T01:10:03;6.10;99.90
29501;DHT22;16450;50.288;10.966;2023-04-15T01:13:05;6.20;99.90
29501;DHT22;16450;50.288;10.966;2023-04-15T01:16:08;6.10;99.90
29501;DHT22;16450;50.288;10.966;2023-04-15T01:19:11;6.10;99.90
29501;DHT22;16450;50.288;10.966;2023-04-15T01:22:15;6.10;99.90
29501;DHT22;16450;50.288;10.966;2023-04-15T01:25:18;6.10;99.90
29501;DHT22;16450;50.288;10.966;2023-04-15T01:28:21;6.10;99.90
29501;DHT22;16450;50.288;10.966;2023-04-15T01:31:22;6.00;99.90
29501;DHT22;16450;50.288;10.966;2023-04-15T01:34:24;6.10;99.90
29501;DHT22;16450;50.288;10.966;2023-04-15T01:37:27;6.00;99.90
29501;DHT22;16450;50.288;10.966;2023-04-15T01:40:29;6.00;99.90
29501;DHT22;16450;50.288;10.966;2023-04-15T01:43:31;6.00;99.90
29501;DHT22;16450;50.288;10.966;2023-04-15T01:46:34;6.10;99.90
29501;DHT22;16450;50.288;10.966;2023-04-15T01:49:37;6.00;99.90
29501;DHT22;16450;50.288;10.966;2023-04-15T01:52:39;6.00;99.90
29501;DHT22;16450;50.288;10.966;2023-04-15T01:55:42;6.00;99.90
29501;DHT22;16450;50.288;10.966;2023-04-15T01:58:44;6.00;99.90
29501;DHT22;16450;50.288;10.966;2023-04-15T02:01:46;6.00;99.90
29501;DHT22;16450;50.288;10.966;2023-04-15T02:04:48;6.00;99.90
29501;DHT22;16450;50.288;10.966;2023-04-15T02:07:51;6.00;99.90
29501;DHT22;16450;50.288;10.966;2023-04-15T02:10:53;6.00;99.90
29501;DHT22;16450;50.288;10.966;2023-04-15T02:13:54;6.00;99.90
29501;DHT22;16450;50.288;10.966;2023-04-15T02:16:57;6.00;99.90
29501;DHT22;16450;50.288;10.966;2023-04-15T02:19:59;6.00;99.90
29501;DHT22;16450;50.288;10.966;2023-04-15T02:23:01;6.00;99.90
29501;DHT22;16450;50.288;10.966;2023-04-15T02:26:03;6.00;99.90
29501;DHT22;16450;50.288;10.966;2023-04-15T02:29:06;6.00;99.90
29501;DHT22;16450;50.288;10.966;2023-04-15T02:32:08;6.00;99.90
29501;DHT22;16450;50.288;10.966;2023-04-15T02:35:10;6.00;99.90
29501;DHT22;16450;50.288;10.966;2023-04-15T02:38:12;6.00;99.90
29501;DHT22;16450;50.288;10.966;2023-04-15T02:41:15;6.00;99.90
29501;DHT22;16450;50.288;10.966;2023-04-15T02:44:17;6.00;99.90
29501;DHT22;16450;50.288;10.966;2023-04-15T02:47:22;5.90;99.90
29501;DHT22;16450;50.288;10.966;2023-04-15T02:50:24;6.00;99.90
29501;DHT22;16450;50.288;10.966;2023-04-15T02:53:26;5.90;99.90
29501;DHT22;16450;50.288;10.966;2023-04-15T02:56:28;5.90;99.90
29501;DHT22;16450;50.288;10.966;2023-04-15T02:59:30;5.90;99.90
29501;DHT22;16450;50.288;10.966;2023-04-15T03:02:33;5.90;99.90
29501;DHT22;16450;50.288;10.966;2023-04-15T03:05:36;5.90;99.90
29501;DHT22;16450;50.288;10.966;2023-04-15T03:08:39;5.90;99.90
29501;DHT22;16450;50.288;10.966;2023-04-15T03:11:42;5.90;99.90
29501;DHT22;16450;50.288;10.966;2023-04-15T03:14:44;5.90;99.90
29501;DHT22;16450;50.288;10.966;2023-04-15T03:17:46;5.90;99.90
29501;DHT22;16450;50.288;10.966;2023-04-15T03:20:50;5.90;99.90
29501;DHT22;16450;50.288;10.966;2023-04-15T03:23:52;5.80;99.90
29501;DHT22;16450;50.288;10.966;2023-04-15T03:26:54;5.80;99.90
29501;DHT22;16450;50.288;10.966;2023-04-15T03:29:56;5.80;99.90
29501;DHT22;16450;50.288;10.966;2023-04-15T03:32:58;5.80;99.90
29501;DHT22;16450;50.288;10.966;2023-04-15T03:36:00;5.80;99.90
29501;DHT22;16450;50.288;10.966;2023-04-15T03:39:02;5.80;99.90
29501;DHT22;16450;50.288;10.966;2023-04-15T03:42:04;5.80;99.90
29501;DHT22;16450;50.288;10.966;2023-04-15T03:45:07;5.80;99.90
29501;DHT22;16450;50.288;10.966;2023-04-15T03:48:08;5.80;99.90
29501;DHT22;16450;50.288;10.966;2023-04-15T03:51:18;5.80;99.90
29501;DHT22;16450;50.288;10.966;2023-04-15T03:54:20;5.80;99.90
29501;DHT22;16450;50.288;10.966;2023-04-15T03:57:22;5.80;99.90
29501;DHT22;16450;50.288;10.966;2023-04-15T04:00:24;5.80;99.90
29501;DHT22;16450;50.288;10.966;2023-04-15T04:03:26;5.80;99.90
29501;DHT22;16450;50.288;10.966;2023-04-15T04:06:28;5.80;99.90
29501;DHT22;16450;50.288;10.966;2023-04-15T04:09:31;5.80;99.90
29501;DHT22;16450;50.288;10.966;2023-04-15T04:12:33;5.80;99.90
29501;DHT22;16450;50.288;10.966;2023-04-15T04:15:35;5.80;99.90
29501;DHT22;16450;50.288;10.966;2023-04-15T04:18:37;5.80;99.90
29501;DHT22;16450;50.288;10.966;2023-04-15T04:21:39;5.80;99.90
29501;DHT22;16450;50.288;10.966;2023-04-15T04:24:41;5.80;99.90
29501;DHT22;16450;50.288;10.966;2023-04-15T04:27:43;5.70;99.90
29501;DHT22;16450;50.288;10.966;2023-04-15T04:30:46;5.80;99.90
29501;DHT22;16450;50.288;10.966;2023-04-15T04:33:47;5.70;99.90
29501;DHT22;16450;50.288;10.966;2023-04-15T04:36:50;5.70;99.90
29501;DHT22;16450;50.288;10.966;2023-04-15T04:39:52;5.70;99.90
29501;DHT22;16450;50.288;10.966;2023-04-15T04:42:53;5.70;99.90
29501;DHT22;16450;50.288;10.966;2023-04-15T04:45:55;5.70;99.90
29501;DHT22;16450;50.288;10.966;2023-04-15T04:48:57;5.70;99.90
29501;DHT22;16450;50.288;10.966;2023-04-15T04:51:59;5.70;99.90
29501;DHT22;16450;50.288;10.966;2023-04-15T04:55:01;5.70;99.90
29501;DHT22;16450;50.288;10.966;2023-04-15T04:58:03;5.70;99.90
29501;DHT22;16450;50.288;10.966;2023-04-15T05:01:05;5.70;99.90
29501;DHT22;16450;50.288;10.966;2023-04-15T05:04:07;5.80;99.90
29501;DHT22;16450;50.288;10.966;2023-04-15T05:07:09;5.70;99.90
29501;DHT22;16450;50.288;10.966;2023-04-15T05:10:11;5.70;99.90
29501;DHT22;16450;50.288;10.966;2023-04-15T05:13:13;5.70;99.90
29501;DHT22;16450;50.288;10.966;2023-04-15T05:16:15;5.70;99.90
29501;DHT22;16450;50.288;10.966;2023-04-15T05:19:18;5.70;99.90
29501;DHT22;16450;50.288;10.966;2023-04-15T05:22:20;5.70;99.90
29501;DHT22;16450;50.288;10.966;2023-04-15T05:25:22;5.70;99.90
29501;DHT22;16450;50.288;10.966;2023-04-15T05:28:24;5.70;99.90
29501;DHT22;16450;50.288;10.966;2023-04-15T05:31:29;5.70;99.90
29501;DHT22;16450;50.288;10.966;2023-04-15T05:34:31;5.70;99.90
29501;DHT22;16450;50.288;10.966;2023-04-15T05:37:33;5.70;99.90
29501;DHT22;16450;50.288;10.966;2023-04-15T05:40:35;5.70;99.90
29501;DHT22;16450;50.288;10.966;2023-04-15T05:43:37;5.70;99.90
29501;DHT22;16450;50.288;10.966;2023-04-15T05:46:39;5.70;99.90
29501;DHT22;16450;50.288;10.966;2023-04-15T05:49:41;5.70;99.90
29501;DHT22;16450;50.288;10.966;2023-04-15T05:52:43;5.70;99.90
29501;DHT22;16450;50.288;10.966;2023-04-15T05:55:46;5.80;99.90
29501;DHT22;16450;50.288;10.966;2023-04-15T05:58:48;5.80;99.90
29501;DHT22;16450;50.288;10.966;2023-04-15T06:01:52;5.80;99.90
29501;DHT22;16450;50.288;10.966;2023-04-15T06:04:54;5.80;99.90
29501;DHT22;16450;50.288;10.966;2023-04-15T06:07:56;5.80;99.90
29501;DHT22;16450;50.288;10.966;2023-04-15T06:10:59;5.80;99.90
29501;DHT22;16450;50.288;10.966;2023-04-15T06:14:01;5.90;99.90
29501;DHT22;16450;50.288;10.966;2023-04-15T06:17:03;5.80;99.90
29501;DHT22;16450;50.288;10.966;2023-04-15T06:20:05;5.80;99.90
29501;DHT22;16450;50.288;10.966;2023-04-15T06:23:07;5.80;99.90
29501;DHT22;16450;50.288;10.966;2023-04-15T06:26:08;5.80;99.90
29501;DHT22;16450;50.288;10.966;2023-04-15T06:29:10;5.80;99.90
29501;DHT22;16450;50.288;10.966;2023-04-15T06:32:12;5.80;99.90
29501;DHT22;16450;50.288;10.966;2023-04-15T06:35:14;5.80;99.90
29501;DHT22;16450;50.288;10.966;2023-04-15T06:38:16;5.80;99.90
29501;DHT22;16450;50.288;10.966;2023-04-15T06:41:18;5.80;99.90
29501;DHT22;16450;50.288;10.966;2023-04-15T06:44:20;5.80;99.90
29501;DHT22;16450;50.288;10.966;2023-04-15T06:47:22;5.80;99.90
29501;DHT22;16450;50.288;10.966;2023-04-15T06:50:25;5.80;99.90
29501;DHT22;16450;50.288;10.966;2023-04-15T06:53:27;5.80;99.90
29501;DHT22;16450;50.288;10.966;2023-04-15T06:56:28;5.80;99.90
29501;DHT22;16450;50.288;10.966;2023-04-15T06:59:31;5.80;99.90
29501;DHT22;16450;50.288;10.966;2023-04-15T07:02:33;5.80;99.90
29501;DHT22;16450;50.288;10.966;2023-04-15T07:05:35;5.80;99.90
29501;DHT22;16450;50.288;10.966;2023-04-15T07:08:38;5.80;99.90
29501;DHT22;16450;50.288;10.966;2023-04-15T07:11:40;5.80;99.90
29501;DHT22;16450;50.288;10.966;2023-04-15T07:14:42;5.80;99.90
29501;DHT22;16450;50.288;10.966;2023-04-15T07:17:44;5.80;99.90
29501;DHT22;16450;50.288;10.966;2023-04-15T07:20:46;5.80;99.90
29501;DHT22;16450;50.288;10.966;2023-04-15T07:23:48;6.00;99.90
29501;DHT22;16450;50.288;10.966;2023-04-15T07:26:50;5.80;99.90
29501;DHT22;16450;50.288;10.966;2023-04-15T07:29:52;5.80;99.90
29501;DHT22;16450;50.288;10.966;2023-04-15T07:32:54;5.90;99.90
29501;DHT22;16450;50.288;10.966;2023-04-15T07:35:57;5.80;99.90
29501;DHT22;16450;50.288;10.966;2023-04-15T07:38:58;5.80;99.90
29501;DHT22;16450;50.288;10.966;2023-04-15T07:42:03;5.90;99.90
29501;DHT22;16450;50.288;10.966;2023-04-15T07:45:06;5.90;99.90
29501;DHT22;16450;50.288;10.966;2023-04-15T07:48:08;5.90;99.90
29501;DHT22;16450;50.288;10.966;2023-04-15T07:51:10;5.90;99.90
29501;DHT22;16450;50.288;10.966;2023-04-15T07:54:16;5.90;99.90
29501;DHT22;16450;50.288;10.966;2023-04-15T07:57:19;6.00;99.90
29501;DHT22;16450;50.288;10.966;2023-04-15T08:00:21;6.00;99.90
29501;DHT22;16450;50.288;10.966;2023-04-15T08:03:24;6.00;99.90
29501;DHT22;16450;50.288;10.966;2023-04-15T08:06:28;6.10;99.90
29501;DHT22;16450;50.288;10.966;2023-04-15T08:09:30;6.10;99.90
29501;DHT22;16450;50.288;10.966;2023-04-15T08:12:32;6.10;99.90
29501;DHT22;16450;50.288;10.966;2023-04-15T08:15:34;6.10;99.90
29501;DHT22;16450;50.288;10.966;2023-04-15T08:18:36;6.10;99.90
29501;DHT22;16450;50.288;10.966;2023-04-15T08:21:38;6.10;99.90
29501;DHT22;16450;50.288;10.966;2023-04-15T08:24:41;6.10;99.90
29501;DHT22;16450;50.288;10.966;2023-04-15T08:27:44;6.10;99.90
29501;DHT22;16450;50.288;10.966;2023-04-15T08:30:47;6.10;99.90
29501;DHT22;16450;50.288;10.966;2023-04-15T08:33:49;6.10;99.90
29501;DHT22;16450;50.288;10.966;2023-04-15T08:36:53;6.10;99.90
29501;DHT22;16450;50.288;10.966;2023-04-15T08:39:55;6.20;99.90
29501;DHT22;16450;50.288;10.966;2023-04-15T08:42:58;6.20;99.90
29501;DHT22;16450;50.288;10.966;2023-04-15T08:46:01;6.20;99.90
29501;DHT22;16450;50.288;10.966;2023-04-15T08:49:09;6.10;99.90
29501;DHT22;16450;50.288;10.966;2023-04-15T08:52:11;6.20;99.90
29501;DHT22;16450;50.288;10.966;2023-04-15T08:55:14;6.20;99.90
29501;DHT22;16450;50.288;10.966;2023-04-15T08:58:17;6.10;99.90
29501;DHT22;16450;50.288;10.966;2023-04-15T09:01:19;6.10;99.90
29501;DHT22;16450;50.288;10.966;2023-04-15T09:04:22;6.20;99.90
29501;DHT22;16450;50.288;10.966;2023-04-15T09:07:24;6.20;99.90
29501;DHT22;16450;50.288;10.966;2023-04-15T09:10:27;6.20;99.90
29501;DHT22;16450;50.288;10.966;2023-04-15T09:13:29;6.20;99.90
29501;DHT22;16450;50.288;10.966;2023-04-15T09:16:51;6.30;99.90
29501;DHT22;16450;50.288;10.966;2023-04-15T09:20:10;6.30;99.90
29501;DHT22;16450;50.288;10.966;2023-04-15T09:23:14;6.40;99.90
29501;DHT22;16450;50.288;10.966;2023-04-15T09:26:18;6.40;99.90
29501;DHT22;16450;50.288;10.966;2023-04-15T09:29:20;6.40;99.90
29501;DHT22;16450;50.288;10.966;2023-04-15T09:32:25;6.50;99.90
29501;DHT22;16450;50.288;10.966;2023-04-15T09:35:27;6.50;99.90
29501;DHT22;16450;50.288;10.966;2023-04-15T09:38:29;6.60;99.90
29501;DHT22;16450;50.288;10.966;2023-04-15T09:41:32;6.60;99.90
29501;DHT22;16450;50.288;10.966;2023-04-15T09:44:34;6.60;99.90
29501;DHT22;16450;50.288;10.966;2023-04-15T09:47:36;6.70;99.90
29501;DHT22;16450;50.288;10.966;2023-04-15T09:50:40;6.80;99.90
29501;DHT22;16450;50.288;10.966;2023-04-15T09:53:43;6.80;99.90
29501;DHT22;16450;50.288;10.966;2023-04-15T09:56:45;6.80;99.90
29501;DHT22;16450;50.288;10.966;2023-04-15T09:59:47;6.90;99.90
29501;DHT22;16450;50.288;10.966;2023-04-15T10:02:49;6.90;99.90
29501;DHT22;16450;50.288;10.966;2023-04-15T10:05:52;7.00;99.90
29501;DHT22;16450;50.288;10.966;2023-04-15T10:08:56;7.00;99.90
29501;DHT22;16450;50.288;10.966;2023-04-15T10:11:58;7.00;99.90
29501;DHT22;16450;50.288;10.966;2023-04-15T10:15:05;7.00;99.90
29501;DHT22;16450;50.288;10.966;2023-04-15T10:18:09;7.00;99.90
29501;DHT22;16450;50.288;10.966;2023-04-15T10:21:12;7.00;99.90
29501;DHT22;16450;50.288;10.966;2023-04-15T10:24:17;7.00;99.90
29501;DHT22;16450;50.288;10.966;2023-04-15T10:27:19;7.10;99.90
29501;DHT22;16450;50.288;10.966;2023-04-15T10:30:22;7.00;99.90
29501;DHT22;16450;50.288;10.966;2023-04-15T10:33:25;7.00;99.90
29501;DHT22;16450;50.288;10.966;2023-04-15T10:36:28;7.00;99.90
29501;DHT22;16450;50.288;10.966;2023-04-15T10:42:38;7.00;99.90
29501;DHT22;16450;50.288;10.966;2023-04-15T10:45:44;7.00;99.90
29501;DHT22;16450;50.288;10.966;2023-04-15T10:48:48;7.00;99.90
29501;DHT22;16450;50.288;10.966;2023-04-15T10:51:52;7.00;99.90
29501;DHT22;16450;50.288;10.966;2023-04-15T10:58:11;7.10;99.90
29501;DHT22;16450;50.288;10.966;2023-04-15T11:01:15;7.10;99.90
29501;DHT22;16450;50.288;10.966;2023-04-15T11:04:52;7.10;99.90
29501;DHT22;16450;50.288;10.966;2023-04-15T11:07:55;7.20;99.90
29501;DHT22;16450;50.288;10.966;2023-04-15T11:10:57;7.20;99.90
29501;DHT22;16450;50.288;10.966;2023-04-15T11:14:01;7.20;99.90
29501;DHT22;16450;50.288;10.966;2023-04-15T11:17:04;7.30;99.90
29501;DHT22;16450;50.288;10.966;2023-04-15T11:20:06;7.40;99.90
29501;DHT22;16450;50.288;10.966;2023-04-15T11:23:10;7.40;99.90
29501;DHT22;16450;50.288;10.966;2023-04-15T11:26:16;7.50;99.90
29501;DHT22;16450;50.288;10.966;2023-04-15T11:29:18;7.60;99.90
29501;DHT22;16450;50.288;10.966;2023-04-15T11:32:20;7.60;99.90
29501;DHT22;16450;50.288;10.966;2023-04-15T11:35:22;7.60;99.90
29501;DHT22;16450;50.288;10.966;2023-04-15T11:38:24;7.70;99.90
29501;DHT22;16450;50.288;10.966;2023-04-15T11:41:26;7.70;99.90
29501;DHT22;16450;50.288;10.966;2023-04-15T11:44:28;7.70;99.90
29501;DHT22;16450;50.288;10.966;2023-04-15T11:47:30;7.70;99.90
29501;DHT22;16450;50.288;10.966;2023-04-15T11:50:32;7.70;99.90
29501;DHT22;16450;50.288;10.966;2023-04-15T11:53:48;7.80;99.90
29501;DHT22;16450;50.288;10.966;2023-04-15T11:56:51;7.70;99.90
29501;DHT22;16450;50.288;10.966;2023-04-15T11:59:54;7.70;99.90
29501;DHT22;16450;50.288;10.966;2023-04-15T12:03:48;7.70;99.90
29501;DHT22;16450;50.288;10.966;2023-04-15T12:06:45;7.70;99.90
29501;DHT22;16450;50.288;10.966;2023-04-15T12:09:54;7.80;99.90
29501;DHT22;16450;50.288;10.966;2023-04-15T12:12:57;7.80;99.90
29501;DHT22;16450;50.288;10.966;2023-04-15T12:15:59;7.80;99.90
29501;DHT22;16450;50.288;10.966;2023-04-15T12:19:04;7.80;99.90
29501;DHT22;16450;50.288;10.966;2023-04-15T12:22:15;7.80;99.90
29501;DHT22;16450;50.288;10.966;2023-04-15T12:25:18;7.90;99.90
29501;DHT22;16450;50.288;10.966;2023-04-15T12:28:20;7.80;99.90
29501;DHT22;16450;50.288;10.966;2023-04-15T12:31:22;7.90;99.90
29501;DHT22;16450;50.288;10.966;2023-04-15T12:37:27;7.80;99.90
29501;DHT22;16450;50.288;10.966;2023-04-15T12:40:29;7.80;99.90
29501;DHT22;16450;50.288;10.966;2023-04-15T12:43:31;7.80;99.90
29501;DHT22;16450;50.288;10.966;2023-04-15T12:46:33;7.70;99.90
29501;DHT22;16450;50.288;10.966;2023-04-15T12:49:35;7.80;99.90
29501;DHT22;16450;50.288;10.966;2023-04-15T12:52:38;7.70;99.90
29501;DHT22;16450;50.288;10.966;2023-04-15T12:55:39;7.70;99.90
29501;DHT22;16450;50.288;10.966;2023-04-15T12:58:42;7.70;99.90
29501;DHT22;16450;50.288;10.966;2023-04-15T13:01:45;7.70;99.90
29501;DHT22;16450;50.288;10.966;2023-04-15T13:04:48;7.70;99.90
29501;DHT22;16450;50.288;10.966;2023-04-15T13:07:49;7.70;99.90
29501;DHT22;16450;50.288;10.966;2023-04-15T13:10:51;7.70;99.90
29501;DHT22;16450;50.288;10.966;2023-04-15T13:13:53;7.80;99.90
29501;DHT22;16450;50.288;10.966;2023-04-15T13:16:57;7.80;99.90
29501;DHT22;16450;50.288;10.966;2023-04-15T13:19:59;7.80;99.90
29501;DHT22;16450;50.288;10.966;2023-04-15T13:23:02;7.80;99.90
29501;DHT22;16450;50.288;10.966;2023-04-15T13:26:04;7.80;99.90
29501;DHT22;16450;50.288;10.966;2023-04-15T13:29:06;7.90;99.90
29501;DHT22;16450;50.288;10.966;2023-04-15T13:32:08;7.80;99.90
29501;DHT22;16450;50.288;10.966;2023-04-15T13:35:10;7.80;99.90
29501;DHT22;16450;50.288;10.966;2023-04-15T13:38:12;7.90;99.90
29501;DHT22;16450;50.288;10.966;2023-04-15T13:41:14;7.90;99.90
29501;DHT22;16450;50.288;10.966;2023-04-15T13:44:16;8.00;99.90
29501;DHT22;16450;50.288;10.966;2023-04-15T13:47:18;8.00;99.90
29501;DHT22;16450;50.288;10.966;2023-04-15T13:50:21;8.00;99.90
29501;DHT22;16450;50.288;10.966;2023-04-15T13:53:22;8.00;99.90
29501;DHT22;16450;50.288;10.966;2023-04-15T13:56:40;8.10;99.90
29501;DHT22;16450;50.288;10.966;2023-04-15T13:59:42;8.10;99.90
29501;DHT22;16450;50.288;10.966;2023-04-15T14:02:44;8.10;99.90
29501;DHT22;16450;50.288;10.966;2023-04-15T14:05:47;8.20;99.90
29501;DHT22;16450;50.288;10.966;2023-04-15T14:08:48;8.20;99.90
29501;DHT22;16450;50.288;10.966;2023-04-15T14:11:50;8.20;99.90
29501;DHT22;16450;50.288;10.966;2023-04-15T14:14:53;8.30;99.90
29501;DHT22;16450;50.288;10.966;2023-04-15T14:17:55;8.30;99.90
29501;DHT22;16450;50.288;10.966;2023-04-15T14:20:57;8.30;99.90
29501;DHT22;16450;50.288;10.966;2023-04-15T14:23:59;8.30;99.90
29501;DHT22;16450;50.288;10.966;2023-04-15T14:27:00;8.40;99.90
29501;DHT22;16450;50.288;10.966;2023-04-15T14:30:03;8.40;99.90
29501;DHT22;16450;50.288;10.966;2023-04-15T14:33:05;8.40;99.90
29501;DHT22;16450;50.288;10.966;2023-04-15T14:36:08;8.30;99.90
29501;DHT22;16450;50.288;10.966;2023-04-15T14:39:10;8.30;99.90
29501;DHT22;16450;50.288;10.966;2023-04-15T14:42:12;8.30;99.90
29501;DHT22;16450;50.288;10.966;2023-04-15T14:45:14;8.30;99.90
29501;DHT22;16450;50.288;10.966;2023-04-15T14:48:16;8.30;99.90
29501;DHT22;16450;50.288;10.966;2023-04-15T14:51:19;8.30;99.90
29501;DHT22;16450;50.288;10.966;2023-04-15T14:54:20;8.30;99.90
29501;DHT22;16450;50.288;10.966;2023-04-15T14:57:23;8.40;99.90
29501;DHT22;16450;50.288;10.966;2023-04-15T15:00:25;8.40;99.90
29501;DHT22;16450;50.288;10.966;2023-04-15T15:03:27;8.40;99.90
29501;DHT22;16450;50.288;10.966;2023-04-15T15:06:30;8.30;99.90
29501;DHT22;16450;50.288;10.966;2023-04-15T15:09:32;8.40;99.90
29501;DHT22;16450;50.288;10.966;2023-04-15T15:12:35;8.40;99.90
29501;DHT22;16450;50.288;10.966;2023-04-15T15:15:37;8.30;99.90
29501;DHT22;16450;50.288;10.966;2023-04-15T15:18:40;8.30;99.90
29501;DHT22;16450;50.288;10.966;2023-04-15T15:21:41;8.30;99.90
29501;DHT22;16450;50.288;10.966;2023-04-15T15:24:44;8.30;99.90
29501;DHT22;16450;50.288;10.966;2023-04-15T15:27:46;8.30;99.90
29501;DHT22;16450;50.288;10.966;2023-04-15T15:30:48;8.30;99.90
29501;DHT22;16450;50.288;10.966;2023-04-15T15:33:50;8.30;99.90
29501;DHT22;16450;50.288;10.966;2023-04-15T15:36:56;8.30;99.90
29501;DHT22;16450;50.288;10.966;2023-04-15T15:39:58;8.20;99.90
29501;DHT22;16450;50.288;10.966;2023-04-15T15:43:01;8.20;99.90
29501;DHT22;16450;50.288;10.966;2023-04-15T15:46:03;8.20;99.90
29501;DHT22;16450;50.288;10.966;2023-04-15T15:49:05;8.20;99.90
29501;DHT22;16450;50.288;10.966;2023-04-15T15:52:07;8.20;99.90
29501;DHT22;16450;50.288;10.966;2023-04-15T15:55:09;8.20;99.90
29501;DHT22;16450;50.288;10.966;2023-04-15T15:58:11;8.20;99.90
29501;DHT22;16450;50.288;10.966;2023-04-15T16:01:13;8.20;99.90
29501;DHT22;16450;50.288;10.966;2023-04-15T16:04:15;8.10;99.90
29501;DHT22;16450;50.288;10.966;2023-04-15T16:07:17;8.10;99.90
29501;DHT22;16450;50.288;10.966;2023-04-15T16:10:19;8.10;99.90
29501;DHT22;16450;50.288;10.966;2023-04-15T16:13:21;8.10;99.90
29501;DHT22;16450;50.288;10.966;2023-04-15T16:16:23;8.10;99.90
29501;DHT22;16450;50.288;10.966;2023-04-15T16:19:25;8.10;99.90
29501;DHT22;16450;50.288;10.966;2023-04-15T16:22:27;8.10;99.90
29501;DHT22;16450;50.288;10.966;2023-04-15T16:25:29;8.10;99.90
29501;DHT22;16450;50.288;10.966;2023-04-15T16:28:31;8.10;99.90
29501;DHT22;16450;50.288;10.966;2023-04-15T16:31:34;8.10;99.90
29501;DHT22;16450;50.288;10.966;2023-04-15T16:34:36;8.00;99.90
29501;DHT22;16450;50.288;10.966;2023-04-15T16:37:39;8.00;99.90
29501;DHT22;16450;50.288;10.966;2023-04-15T16:40:41;8.00;99.90
29501;DHT22;16450;50.288;10.966;2023-04-15T16:43:43;8.00;99.90
29501;DHT22;16450;50.288;10.966;2023-04-15T16:46:46;8.00;99.90
29501;DHT22;16450;50.288;10.966;2023-04-15T16:49:49;8.00;99.90
29501;DHT22;16450;50.288;10.966;2023-04-15T16:52:51;7.90;99.90
29501;DHT22;16450;50.288;10.966;2023-04-15T16:55:53;8.00;99.90
29501;DHT22;16450;50.288;10.966;2023-04-15T16:58:55;7.90;99.90
29501;DHT22;16450;50.288;10.966;2023-04-15T17:01:57;7.90;99.90
29501;DHT22;16450;50.288;10.966;2023-04-15T17:04:59;7.90;99.90
29501;DHT22;16450;50.288;10.966;2023-04-15T17:08:01;7.90;99.90
29501;DHT22;16450;50.288;10.966;2023-04-15T17:11:03;7.90;99.90
29501;DHT22;16450;50.288;10.966;2023-04-15T17:14:08;7.90;99.90
29501;DHT22;16450;50.288;10.966;2023-04-15T17:17:11;7.90;99.90
29501;DHT22;16450;50.288;10.966;2023-04-15T17:20:13;7.90;99.90
29501;DHT22;16450;50.288;10.966;2023-04-15T17:23:15;7.90;99.90
29501;DHT22;16450;50.288;10.966;2023-04-15T17:26:18;7.90;99.90
29501;DHT22;16450;50.288;10.966;2023-04-15T17:29:20;7.70;99.90
29501;DHT22;16450;50.288;10.966;2023-04-15T17:32:22;7.90;99.90
29501;DHT22;16450;50.288;10.966;2023-04-15T17:35:24;7.90;99.90
29501;DHT22;16450;50.288;10.966;2023-04-15T17:38:26;7.80;99.90
29501;DHT22;16450;50.288;10.966;2023-04-15T17:41:28;7.80;99.90
29501;DHT22;16450;50.288;10.966;2023-04-15T17:44:30;7.80;99.90
29501;DHT22;16450;50.288;10.966;2023-04-15T17:47:32;7.80;99.90
29501;DHT22;16450;50.288;10.966;2023-04-15T17:50:34;7.80;99.90
29501;DHT22;16450;50.288;10.966;2023-04-15T17:53:36;7.70;99.90
29501;DHT22;16450;50.288;10.966;2023-04-15T17:56:38;7.70;99.90
29501;DHT22;16450;50.288;10.966;2023-04-15T17:59:42;7.70;99.90
29501;DHT22;16450;50.288;10.966;2023-04-15T18:02:45;7.70;99.90
29501;DHT22;16450;50.288;10.966;2023-04-15T18:05:49;7.70;99.90
29501;DHT22;16450;50.288;10.966;2023-04-15T18:08:51;7.70;99.90
29501;DHT22;16450;50.288;10.966;2023-04-15T18:11:53;7.60;99.90
29501;DHT22;16450;50.288;10.966;2023-04-15T18:14:55;7.60;99.90
29501;DHT22;16450;50.288;10.966;2023-04-15T18:17:58;7.60;99.90
29501;DHT22;16450;50.288;10.966;2023-04-15T18:21:00;7.60;99.90
29501;DHT22;16450;50.288;10.966;2023-04-15T18:24:02;7.50;99.90
29501;DHT22;16450;50.288;10.966;2023-04-15T18:27:05;7.50;99.90
29501;DHT22;16450;50.288;10.966;2023-04-15T18:30:09;7.50;99.90
29501;DHT22;16450;50.288;10.966;2023-04-15T18:33:11;7.50;99.90
29501;DHT22;16450;50.288;10.966;2023-04-15T18:36:13;7.50;99.90
29501;DHT22;16450;50.288;10.966;2023-04-15T18:39:15;7.50;99.90
29501;DHT22;16450;50.288;10.966;2023-04-15T18:42:17;7.50;99.90
29501;DHT22;16450;50.288;10.966;2023-04-15T18:45:19;7.50;99.90
29501;DHT22;16450;50.288;10.966;2023-04-15T18:48:21;7.50;99.90
29501;DHT22;16450;50.288;10.966;2023-04-15T18:51:23;7.40;99.90
29501;DHT22;16450;50.288;10.966;2023-04-15T18:54:25;7.40;99.90
29501;DHT22;16450;50.288;10.966;2023-04-15T18:57:30;7.40;99.90
29501;DHT22;16450;50.288;10.966;2023-04-15T19:00:37;7.40;99.90
29501;DHT22;16450;50.288;10.966;2023-04-15T19:03:42;7.40;99.90
29501;DHT22;16450;50.288;10.966;2023-04-15T19:06:46;7.40;99.90
29501;DHT22;16450;50.288;10.966;2023-04-15T19:09:48;7.40;99.90
29501;DHT22;16450;50.288;10.966;2023-04-15T19:12:50;7.40;99.90
29501;DHT22;16450;50.288;10.966;2023-04-15T19:15:52;7.40;99.90
29501;DHT22;16450;50.288;10.966;2023-04-15T19:18:54;7.40;99.90
29501;DHT22;16450;50.288;10.966;2023-04-15T19:21:56;7.40;99.90